sensor_id;sensor_type;location;lat;lon;timestamp;P1;durP1;ratioP1;P2;durP2;ratioP2
8564;SDS011;4320;51.498;6.556;2022-07-17T00:00:46;6.07;;;2.08;;
8564;SDS011;4320;51.498;6.556;2022-07-17T00:03:12;6.80;;;1.90;;
8564;SDS011;4320;51.498;6.556;2022-07-17T00:05:39;2.65;;;1.67;;
8564;SDS011;4320;51.498;6.556;2022-07-17T00:08:06;4.00;;;2.20;;
8564;SDS011;4320;51.498;6.556;2022-07-17T00:10:32;3.55;;;1.50;;
8564;SDS011;4320;51.498;6.556;2022-07-17T00:13:02;3.40;;;1.83;;
8564;SDS011;4320;51.498;6.556;2022-07-17T00:15:28;4.40;;;1.83;;
8564;SDS011;4320;51.498;6.556;2022-07-17T00:17:53;3.72;;;2.10;;
8564;SDS011;4320;51.498;6.556;2022-07-17T00:20:20;7.13;;;1.88;;
8564;SDS011;4320;51.498;6.556;2022-07-17T00:22:45;5.10;;;2.05;;
8564;SDS011;4320;51.498;6.556;2022-07-17T00:25:12;7.40;;;2.08;;
8564;SDS011;4320;51.498;6.556;2022-07-17T00:27:38;3.75;;;2.00;;
8564;SDS011;4320;51.498;6.556;2022-07-17T00:30:04;5.82;;;2.13;;
8564;SDS011;4320;51.498;6.556;2022-07-17T00:32:31;4.10;;;1.92;;
8564;SDS011;4320;51.498;6.556;2022-07-17T00:34:57;4.35;;;1.90;;
8564;SDS011;4320;51.498;6.556;2022-07-17T00:37:23;4.03;;;1.73;;
8564;SDS011;4320;51.498;6.556;2022-07-17T00:39:49;4.57;;;1.85;;
8564;SDS011;4320;51.498;6.556;2022-07-17T00:42:15;5.78;;;2.10;;
8564;SDS011;4320;51.498;6.556;2022-07-17T00:44:42;4.15;;;1.70;;
8564;SDS011;4320;51.498;6.556;2022-07-17T00:47:18;2.45;;;1.80;;
8564;SDS011;4320;51.498;6.556;2022-07-17T00:49:45;6.28;;;2.13;;
8564;SDS011;4320;51.498;6.556;2022-07-17T00:52:12;3.58;;;1.80;;
8564;SDS011;4320;51.498;6.556;2022-07-17T00:54:39;2.83;;;1.80;;
8564;SDS011;4320;51.498;6.556;2022-07-17T00:57:07;3.92;;;1.83;;
8564;SDS011;4320;51.498;6.556;2022-07-17T00:59:34;3.25;;;1.90;;
8564;SDS011;4320;51.498;6.556;2022-07-17T01:02:08;5.25;;;2.40;;
8564;SDS011;4320;51.498;6.556;2022-07-17T01:04:36;7.20;;;2.40;;
8564;SDS011;4320;51.498;6.556;2022-07-17T01:07:03;5.72;;;2.40;;
8564;SDS011;4320;51.498;6.556;2022-07-17T01:09:30;4.82;;;2.42;;
8564;SDS011;4320;51.498;6.556;2022-07-17T01:11:57;5.75;;;2.20;;
8564;SDS011;4320;51.498;6.556;2022-07-17T01:14:24;4.72;;;2.08;;
8564;SDS011;4320;51.498;6.556;2022-07-17T01:16:51;4.45;;;2.25;;
8564;SDS011;4320;51.498;6.556;2022-07-17T01:19:18;4.30;;;2.13;;
8564;SDS011;4320;51.498;6.556;2022-07-17T01:21:45;3.22;;;2.05;;
8564;SDS011;4320;51.498;6.556;2022-07-17T01:24:12;4.78;;;2.15;;
8564;SDS011;4320;51.498;6.556;2022-07-17T01:26:45;5.32;;;2.13;;
8564;SDS011;4320;51.498;6.556;2022-07-17T01:29:13;6.07;;;2.20;;
8564;SDS011;4320;51.498;6.556;2022-07-17T01:31:40;6.85;;;2.22;;
8564;SDS011;4320;51.498;6.556;2022-07-17T01:34:07;3.83;;;2.15;;
8564;SDS011;4320;51.498;6.556;2022-07-17T01:36:34;3.88;;;2.10;;
8564;SDS011;4320;51.498;6.556;2022-07-17T01:39:00;3.25;;;1.90;;
8564;SDS011;4320;51.498;6.556;2022-07-17T01:41:27;5.43;;;2.45;;
8564;SDS011;4320;51.498;6.556;2022-07-17T01:43:53;3.28;;;2.03;;
8564;SDS011;4320;51.498;6.556;2022-07-17T01:46:19;7.63;;;2.30;;
8564;SDS011;4320;51.498;6.556;2022-07-17T01:48:44;6.78;;;2.30;;
8564;SDS011;4320;51.498;6.556;2022-07-17T01:51:10;7.53;;;2.33;;
8564;SDS011;4320;51.498;6.556;2022-07-17T01:53:36;3.15;;;2.20;;
8564;SDS011;4320;51.498;6.556;2022-07-17T01:56:02;3.25;;;2.00;;
8564;SDS011;4320;51.498;6.556;2022-07-17T01:58:27;3.78;;;2.10;;
8564;SDS011;4320;51.498;6.556;2022-07-17T02:00:53;6.28;;;2.10;;
8564;SDS011;4320;51.498;6.556;2022-07-17T02:03:19;3.28;;;1.98;;
8564;SDS011;4320;51.498;6.556;2022-07-17T02:05:45;5.15;;;2.53;;
8564;SDS011;4320;51.498;6.556;2022-07-17T02:08:12;5.00;;;2.10;;
8564;SDS011;4320;51.498;6.556;2022-07-17T02:10:37;6.05;;;2.70;;
8564;SDS011;4320;51.498;6.556;2022-07-17T02:13:03;5.05;;;2.58;;
8564;SDS011;4320;51.498;6.556;2022-07-17T02:15:29;5.38;;;1.73;;
8564;SDS011;4320;51.498;6.556;2022-07-17T02:17:54;4.95;;;2.05;;
8564;SDS011;4320;51.498;6.556;2022-07-17T02:20:20;8.90;;;2.15;;
8564;SDS011;4320;51.498;6.556;2022-07-17T02:22:46;6.85;;;2.10;;
8564;SDS011;4320;51.498;6.556;2022-07-17T02:25:12;6.20;;;2.15;;
8564;SDS011;4320;51.498;6.556;2022-07-17T02:27:38;6.30;;;1.92;;
8564;SDS011;4320;51.498;6.556;2022-07-17T02:30:06;3.03;;;1.88;;
8564;SDS011;4320;51.498;6.556;2022-07-17T02:32:33;5.18;;;2.22;;
8564;SDS011;4320;51.498;6.556;2022-07-17T02:34:59;6.05;;;2.55;;
8564;SDS011;4320;51.498;6.556;2022-07-17T02:37:25;3.53;;;1.90;;
8564;SDS011;4320;51.498;6.556;2022-07-17T02:39:50;6.13;;;2.28;;
8564;SDS011;4320;51.498;6.556;2022-07-17T02:42:19;5.00;;;2.10;;
8564;SDS011;4320;51.498;6.556;2022-07-17T02:44:45;5.07;;;2.42;;
8564;SDS011;4320;51.498;6.556;2022-07-17T02:47:11;2.78;;;1.92;;
8564;SDS011;4320;51.498;6.556;2022-07-17T02:49:38;3.30;;;2.13;;
8564;SDS011;4320;51.498;6.556;2022-07-17T02:52:04;1.98;;;1.70;;
8564;SDS011;4320;51.498;6.556;2022-07-17T02:54:29;4.63;;;2.08;;
8564;SDS011;4320;51.498;6.556;2022-07-17T02:56:55;5.43;;;1.90;;
8564;SDS011;4320;51.498;6.556;2022-07-17T02:59:20;2.85;;;1.77;;
8564;SDS011;4320;51.498;6.556;2022-07-17T03:01:46;4.35;;;2.05;;
8564;SDS011;4320;51.498;6.556;2022-07-17T03:04:12;4.05;;;1.92;;
8564;SDS011;4320;51.498;6.556;2022-07-17T03:06:37;9.60;;;2.30;;
8564;SDS011;4320;51.498;6.556;2022-07-17T03:09:03;2.63;;;1.80;;
8564;SDS011;4320;51.498;6.556;2022-07-17T03:11:28;5.70;;;1.80;;
8564;SDS011;4320;51.498;6.556;2022-07-17T03:13:54;7.40;;;1.90;;
8564;SDS011;4320;51.498;6.556;2022-07-17T03:16:20;3.08;;;2.08;;
8564;SDS011;4320;51.498;6.556;2022-07-17T03:18:45;4.00;;;2.20;;
8564;SDS011;4320;51.498;6.556;2022-07-17T03:21:11;7.93;;;2.17;;
8564;SDS011;4320;51.498;6.556;2022-07-17T03:23:36;5.97;;;2.15;;
8564;SDS011;4320;51.498;6.556;2022-07-17T03:26:02;6.05;;;2.25;;
8564;SDS011;4320;51.498;6.556;2022-07-17T03:28:27;5.72;;;2.17;;
8564;SDS011;4320;51.498;6.556;2022-07-17T03:30:53;7.40;;;2.00;;
8564;SDS011;4320;51.498;6.556;2022-07-17T03:33:19;4.70;;;2.10;;
8564;SDS011;4320;51.498;6.556;2022-07-17T03:35:44;8.68;;;2.22;;
8564;SDS011;4320;51.498;6.556;2022-07-17T03:38:10;5.03;;;2.03;;
8564;SDS011;4320;51.498;6.556;2022-07-17T03:40:36;4.32;;;2.55;;
8564;SDS011;4320;51.498;6.556;2022-07-17T03:43:01;6.18;;;2.15;;
8564;SDS011;4320;51.498;6.556;2022-07-17T03:45:27;6.53;;;2.55;;
8564;SDS011;4320;51.498;6.556;2022-07-17T03:47:53;6.97;;;2.15;;
8564;SDS011;4320;51.498;6.556;2022-07-17T03:50:18;3.97;;;2.30;;
8564;SDS011;4320;51.498;6.556;2022-07-17T03:52:44;3.67;;;1.83;;
8564;SDS011;4320;51.498;6.556;2022-07-17T03:55:10;6.03;;;2.17;;
8564;SDS011;4320;51.498;6.556;2022-07-17T03:57:35;6.15;;;1.95;;
8564;SDS011;4320;51.498;6.556;2022-07-17T04:00:01;5.68;;;2.10;;
8564;SDS011;4320;51.498;6.556;2022-07-17T04:02:27;5.80;;;2.05;;
8564;SDS011;4320;51.498;6.556;2022-07-17T04:04:53;2.55;;;2.00;;
8564;SDS011;4320;51.498;6.556;2022-07-17T04:07:19;5.10;;;2.17;;
8564;SDS011;4320;51.498;6.556;2022-07-17T04:09:57;3.83;;;1.98;;
8564;SDS011;4320;51.498;6.556;2022-07-17T04:12:24;4.25;;;2.20;;
8564;SDS011;4320;51.498;6.556;2022-07-17T04:14:51;4.75;;;2.85;;
8564;SDS011;4320;51.498;6.556;2022-07-17T04:17:16;5.80;;;2.30;;
8564;SDS011;4320;51.498;6.556;2022-07-17T04:19:42;3.55;;;2.30;;
8564;SDS011;4320;51.498;6.556;2022-07-17T04:22:09;5.85;;;2.33;;
8564;SDS011;4320;51.498;6.556;2022-07-17T04:24:34;12.95;;;2.58;;
8564;SDS011;4320;51.498;6.556;2022-07-17T04:27:00;4.18;;;2.40;;
8564;SDS011;4320;51.498;6.556;2022-07-17T04:29:25;5.40;;;2.70;;
8564;SDS011;4320;51.498;6.556;2022-07-17T04:31:51;5.90;;;2.70;;
8564;SDS011;4320;51.498;6.556;2022-07-17T04:34:17;4.25;;;2.25;;
8564;SDS011;4320;51.498;6.556;2022-07-17T04:36:42;8.68;;;2.28;;
8564;SDS011;4320;51.498;6.556;2022-07-17T04:39:08;3.70;;;2.15;;
8564;SDS011;4320;51.498;6.556;2022-07-17T04:41:34;5.10;;;2.47;;
8564;SDS011;4320;51.498;6.556;2022-07-17T04:43:59;2.75;;;2.17;;
8564;SDS011;4320;51.498;6.556;2022-07-17T04:46:25;3.85;;;2.35;;
8564;SDS011;4320;51.498;6.556;2022-07-17T04:48:51;5.38;;;2.45;;
8564;SDS011;4320;51.498;6.556;2022-07-17T04:51:16;5.05;;;2.20;;
8564;SDS011;4320;51.498;6.556;2022-07-17T04:53:42;4.47;;;2.38;;
8564;SDS011;4320;51.498;6.556;2022-07-17T04:56:08;7.53;;;2.38;;
8564;SDS011;4320;51.498;6.556;2022-07-17T04:58:33;9.55;;;2.70;;
8564;SDS011;4320;51.498;6.556;2022-07-17T05:00:59;6.38;;;2.40;;
8564;SDS011;4320;51.498;6.556;2022-07-17T05:03:25;5.75;;;2.38;;
8564;SDS011;4320;51.498;6.556;2022-07-17T05:05:50;5.32;;;2.60;;
8564;SDS011;4320;51.498;6.556;2022-07-17T05:08:16;3.63;;;2.28;;
8564;SDS011;4320;51.498;6.556;2022-07-17T05:10:43;4.65;;;2.60;;
8564;SDS011;4320;51.498;6.556;2022-07-17T05:13:09;4.45;;;2.42;;
8564;SDS011;4320;51.498;6.556;2022-07-17T05:15:35;5.82;;;2.60;;
8564;SDS011;4320;51.498;6.556;2022-07-17T05:18:01;4.32;;;2.40;;
8564;SDS011;4320;51.498;6.556;2022-07-17T05:20:26;5.05;;;2.35;;
8564;SDS011;4320;51.498;6.556;2022-07-17T05:22:52;3.90;;;2.35;;
8564;SDS011;4320;51.498;6.556;2022-07-17T05:25:19;3.45;;;2.13;;
8564;SDS011;4320;51.498;6.556;2022-07-17T05:27:44;3.63;;;2.05;;
8564;SDS011;4320;51.498;6.556;2022-07-17T05:30:10;5.05;;;2.30;;
8564;SDS011;4320;51.498;6.556;2022-07-17T05:32:36;4.07;;;2.47;;
8564;SDS011;4320;51.498;6.556;2022-07-17T05:35:02;4.00;;;2.10;;
8564;SDS011;4320;51.498;6.556;2022-07-17T05:37:27;3.80;;;2.00;;
8564;SDS011;4320;51.498;6.556;2022-07-17T05:39:53;6.45;;;2.65;;
8564;SDS011;4320;51.498;6.556;2022-07-17T05:42:19;8.02;;;2.65;;
8564;SDS011;4320;51.498;6.556;2022-07-17T05:44:44;5.20;;;2.47;;
8564;SDS011;4320;51.498;6.556;2022-07-17T05:47:10;6.78;;;2.40;;
8564;SDS011;4320;51.498;6.556;2022-07-17T05:49:35;4.95;;;2.20;;
8564;SDS011;4320;51.498;6.556;2022-07-17T05:52:01;8.13;;;2.53;;
8564;SDS011;4320;51.498;6.556;2022-07-17T05:54:27;3.80;;;2.55;;
8564;SDS011;4320;51.498;6.556;2022-07-17T05:56:52;6.18;;;2.40;;
8564;SDS011;4320;51.498;6.556;2022-07-17T05:59:18;7.28;;;2.42;;
8564;SDS011;4320;51.498;6.556;2022-07-17T06:01:44;5.28;;;2.35;;
8564;SDS011;4320;51.498;6.556;2022-07-17T06:04:09;8.13;;;2.40;;
8564;SDS011;4320;51.498;6.556;2022-07-17T06:06:35;4.22;;;2.30;;
8564;SDS011;4320;51.498;6.556;2022-07-17T06:09:01;8.00;;;2.70;;
8564;SDS011;4320;51.498;6.556;2022-07-17T06:11:26;5.50;;;2.60;;
8564;SDS011;4320;51.498;6.556;2022-07-17T06:13:52;7.50;;;2.92;;
8564;SDS011;4320;51.498;6.556;2022-07-17T06:16:18;5.88;;;2.70;;
8564;SDS011;4320;51.498;6.556;2022-07-17T06:18:43;5.20;;;2.15;;
8564;SDS011;4320;51.498;6.556;2022-07-17T06:21:09;7.93;;;3.13;;
8564;SDS011;4320;51.498;6.556;2022-07-17T06:23:35;7.95;;;2.95;;
8564;SDS011;4320;51.498;6.556;2022-07-17T06:26:00;7.43;;;2.60;;
8564;SDS011;4320;51.498;6.556;2022-07-17T06:28:26;9.50;;;3.13;;
8564;SDS011;4320;51.498;6.556;2022-07-17T06:30:52;3.80;;;2.67;;
8564;SDS011;4320;51.498;6.556;2022-07-17T06:33:17;6.80;;;2.92;;
8564;SDS011;4320;51.498;6.556;2022-07-17T06:35:43;7.72;;;3.17;;
8564;SDS011;4320;51.498;6.556;2022-07-17T06:38:09;5.57;;;3.10;;
8564;SDS011;4320;51.498;6.556;2022-07-17T06:40:35;7.40;;;3.63;;
8564;SDS011;4320;51.498;6.556;2022-07-17T06:43:01;7.57;;;3.47;;
8564;SDS011;4320;51.498;6.556;2022-07-17T06:45:28;8.82;;;3.13;;
8564;SDS011;4320;51.498;6.556;2022-07-17T06:47:53;6.07;;;3.35;;
8564;SDS011;4320;51.498;6.556;2022-07-17T06:50:19;8.30;;;3.10;;
8564;SDS011;4320;51.498;6.556;2022-07-17T06:52:45;6.93;;;3.00;;
8564;SDS011;4320;51.498;6.556;2022-07-17T06:55:10;6.97;;;3.20;;
8564;SDS011;4320;51.498;6.556;2022-07-17T06:57:36;9.38;;;3.00;;
8564;SDS011;4320;51.498;6.556;2022-07-17T07:00:02;5.70;;;3.20;;
8564;SDS011;4320;51.498;6.556;2022-07-17T07:02:29;6.40;;;3.17;;
8564;SDS011;4320;51.498;6.556;2022-07-17T07:04:54;9.05;;;3.03;;
8564;SDS011;4320;51.498;6.556;2022-07-17T07:07:20;7.57;;;2.90;;
8564;SDS011;4320;51.498;6.556;2022-07-17T07:09:45;8.52;;;3.65;;
8564;SDS011;4320;51.498;6.556;2022-07-17T07:12:11;7.57;;;3.40;;
8564;SDS011;4320;51.498;6.556;2022-07-17T07:14:37;8.18;;;3.22;;
8564;SDS011;4320;51.498;6.556;2022-07-17T07:17:02;5.35;;;2.97;;
8564;SDS011;4320;51.498;6.556;2022-07-17T07:19:28;6.65;;;2.92;;
8564;SDS011;4320;51.498;6.556;2022-07-17T07:21:54;7.75;;;3.28;;
8564;SDS011;4320;51.498;6.556;2022-07-17T07:24:19;7.07;;;2.90;;
8564;SDS011;4320;51.498;6.556;2022-07-17T07:26:45;5.43;;;2.83;;
8564;SDS011;4320;51.498;6.556;2022-07-17T07:29:10;7.90;;;3.42;;
8564;SDS011;4320;51.498;6.556;2022-07-17T07:31:36;7.95;;;2.78;;
8564;SDS011;4320;51.498;6.556;2022-07-17T07:34:02;10.52;;;3.63;;
8564;SDS011;4320;51.498;6.556;2022-07-17T07:36:27;5.97;;;3.05;;
8564;SDS011;4320;51.498;6.556;2022-07-17T07:38:53;8.35;;;3.42;;
8564;SDS011;4320;51.498;6.556;2022-07-17T07:41:18;5.95;;;2.83;;
8564;SDS011;4320;51.498;6.556;2022-07-17T07:43:44;7.25;;;3.08;;
8564;SDS011;4320;51.498;6.556;2022-07-17T07:46:10;8.18;;;3.25;;
8564;SDS011;4320;51.498;6.556;2022-07-17T07:48:35;8.15;;;3.35;;
8564;SDS011;4320;51.498;6.556;2022-07-17T07:51:01;8.15;;;2.97;;
8564;SDS011;4320;51.498;6.556;2022-07-17T07:53:27;10.88;;;3.45;;
8564;SDS011;4320;51.498;6.556;2022-07-17T07:55:53;12.57;;;3.22;;
8564;SDS011;4320;51.498;6.556;2022-07-17T07:58:18;7.15;;;2.92;;
8564;SDS011;4320;51.498;6.556;2022-07-17T08:00:44;9.18;;;2.92;;
8564;SDS011;4320;51.498;6.556;2022-07-17T08:03:10;9.95;;;3.00;;
8564;SDS011;4320;51.498;6.556;2022-07-17T08:05:37;6.40;;;3.20;;
8564;SDS011;4320;51.498;6.556;2022-07-17T08:08:03;5.57;;;2.33;;
8564;SDS011;4320;51.498;6.556;2022-07-17T08:10:30;6.78;;;2.35;;
8564;SDS011;4320;51.498;6.556;2022-07-17T08:12:56;7.10;;;2.63;;
8564;SDS011;4320;51.498;6.556;2022-07-17T08:15:22;6.13;;;2.83;;
8564;SDS011;4320;51.498;6.556;2022-07-17T08:17:49;6.22;;;2.90;;
8564;SDS011;4320;51.498;6.556;2022-07-17T08:20:16;4.00;;;2.22;;
8564;SDS011;4320;51.498;6.556;2022-07-17T08:22:43;5.05;;;2.78;;
8564;SDS011;4320;51.498;6.556;2022-07-17T08:25:10;4.65;;;2.53;;
8564;SDS011;4320;51.498;6.556;2022-07-17T08:27:37;4.85;;;2.63;;
8564;SDS011;4320;51.498;6.556;2022-07-17T08:30:05;5.70;;;2.42;;
8564;SDS011;4320;51.498;6.556;2022-07-17T08:32:32;6.75;;;2.55;;
8564;SDS011;4320;51.498;6.556;2022-07-17T08:34:57;6.45;;;1.90;;
8564;SDS011;4320;51.498;6.556;2022-07-17T08:37:23;5.07;;;2.20;;
8564;SDS011;4320;51.498;6.556;2022-07-17T08:39:49;4.28;;;1.80;;
8564;SDS011;4320;51.498;6.556;2022-07-17T08:42:15;6.00;;;1.85;;
8564;SDS011;4320;51.498;6.556;2022-07-17T08:44:45;4.05;;;1.83;;
8564;SDS011;4320;51.498;6.556;2022-07-17T08:47:11;4.57;;;1.92;;
8564;SDS011;4320;51.498;6.556;2022-07-17T08:49:40;3.13;;;2.08;;
8564;SDS011;4320;51.498;6.556;2022-07-17T08:52:11;5.30;;;1.77;;
8564;SDS011;4320;51.498;6.556;2022-07-17T08:54:37;4.20;;;2.15;;
8564;SDS011;4320;51.498;6.556;2022-07-17T08:57:03;6.93;;;2.15;;
8564;SDS011;4320;51.498;6.556;2022-07-17T08:59:29;2.97;;;1.67;;
8564;SDS011;4320;51.498;6.556;2022-07-17T09:01:55;4.28;;;2.10;;
8564;SDS011;4320;51.498;6.556;2022-07-17T09:04:22;3.20;;;1.73;;
8564;SDS011;4320;51.498;6.556;2022-07-17T09:07:10;3.35;;;2.00;;
8564;SDS011;4320;51.498;6.556;2022-07-17T09:09:36;4.00;;;1.73;;
8564;SDS011;4320;51.498;6.556;2022-07-17T09:12:02;5.45;;;2.00;;
8564;SDS011;4320;51.498;6.556;2022-07-17T09:14:36;5.45;;;2.30;;
8564;SDS011;4320;51.498;6.556;2022-07-17T09:17:04;4.10;;;1.85;;
8564;SDS011;4320;51.498;6.556;2022-07-17T09:19:36;3.95;;;1.70;;
8564;SDS011;4320;51.498;6.556;2022-07-17T09:27:12;5.93;;;1.88;;
8564;SDS011;4320;51.498;6.556;2022-07-17T09:32:40;3.05;;;1.63;;
8564;SDS011;4320;51.498;6.556;2022-07-17T09:35:08;8.23;;;2.33;;
8564;SDS011;4320;51.498;6.556;2022-07-17T09:37:35;4.45;;;1.65;;
8564;SDS011;4320;51.498;6.556;2022-07-17T09:40:06;2.78;;;1.88;;
8564;SDS011;4320;51.498;6.556;2022-07-17T09:42:34;4.75;;;2.08;;
8564;SDS011;4320;51.498;6.556;2022-07-17T09:45:04;6.22;;;1.80;;
8564;SDS011;4320;51.498;6.556;2022-07-17T09:47:35;3.78;;;1.67;;
8564;SDS011;4320;51.498;6.556;2022-07-17T09:50:03;5.97;;;1.60;;
8564;SDS011;4320;51.498;6.556;2022-07-17T09:52:31;6.03;;;2.10;;
8564;SDS011;4320;51.498;6.556;2022-07-17T09:55:00;3.88;;;2.03;;
8564;SDS011;4320;51.498;6.556;2022-07-17T09:57:29;5.22;;;1.85;;
8564;SDS011;4320;51.498;6.556;2022-07-17T10:00:02;4.55;;;1.83;;
8564;SDS011;4320;51.498;6.556;2022-07-17T10:02:37;3.90;;;1.70;;
8564;SDS011;4320;51.498;6.556;2022-07-17T10:05:06;5.40;;;2.17;;
8564;SDS011;4320;51.498;6.556;2022-07-17T10:07:37;6.18;;;2.17;;
8564;SDS011;4320;51.498;6.556;2022-07-17T10:10:05;6.75;;;1.92;;
8564;SDS011;4320;51.498;6.556;2022-07-17T10:12:32;8.05;;;2.50;;
8564;SDS011;4320;51.498;6.556;2022-07-17T10:14:59;5.30;;;2.10;;
8564;SDS011;4320;51.498;6.556;2022-07-17T10:17:24;8.57;;;1.92;;
8564;SDS011;4320;51.498;6.556;2022-07-17T10:19:53;5.70;;;2.08;;
8564;SDS011;4320;51.498;6.556;2022-07-17T10:22:19;5.13;;;2.05;;
8564;SDS011;4320;51.498;6.556;2022-07-17T10:24:49;5.43;;;2.08;;
8564;SDS011;4320;51.498;6.556;2022-07-17T10:27:20;3.97;;;1.60;;
8564;SDS011;4320;51.498;6.556;2022-07-17T10:29:58;3.28;;;1.77;;
8564;SDS011;4320;51.498;6.556;2022-07-17T10:32:34;4.18;;;1.83;;
8564;SDS011;4320;51.498;6.556;2022-07-17T10:35:03;6.13;;;1.85;;
8564;SDS011;4320;51.498;6.556;2022-07-17T10:42:46;5.28;;;2.20;;
8564;SDS011;4320;51.498;6.556;2022-07-17T10:47:46;3.85;;;1.85;;
8564;SDS011;4320;51.498;6.556;2022-07-17T10:50:14;7.40;;;2.13;;
8564;SDS011;4320;51.498;6.556;2022-07-17T10:52:40;5.63;;;1.75;;
8564;SDS011;4320;51.498;6.556;2022-07-17T10:55:17;3.40;;;1.95;;
8564;SDS011;4320;51.498;6.556;2022-07-17T10:57:44;5.93;;;2.03;;
8564;SDS011;4320;51.498;6.556;2022-07-17T11:00:12;6.70;;;1.90;;
8564;SDS011;4320;51.498;6.556;2022-07-17T11:02:37;4.20;;;1.90;;
8564;SDS011;4320;51.498;6.556;2022-07-17T11:05:06;3.97;;;2.00;;
8564;SDS011;4320;51.498;6.556;2022-07-17T11:07:33;5.20;;;2.38;;
8564;SDS011;4320;51.498;6.556;2022-07-17T11:09:59;6.55;;;2.05;;
8564;SDS011;4320;51.498;6.556;2022-07-17T11:12:34;3.92;;;1.73;;
8564;SDS011;4320;51.498;6.556;2022-07-17T11:15:03;7.95;;;2.20;;
8564;SDS011;4320;51.498;6.556;2022-07-17T11:17:29;8.32;;;2.05;;
8564;SDS011;4320;51.498;6.556;2022-07-17T11:19:57;6.78;;;2.35;;
8564;SDS011;4320;51.498;6.556;2022-07-17T11:22:24;3.53;;;1.80;;
8564;SDS011;4320;51.498;6.556;2022-07-17T11:24:51;5.07;;;1.88;;
8564;SDS011;4320;51.498;6.556;2022-07-17T11:29:55;4.65;;;1.85;;
8564;SDS011;4320;51.498;6.556;2022-07-17T11:32:21;4.78;;;1.90;;
8564;SDS011;4320;51.498;6.556;2022-07-17T11:34:47;3.50;;;2.13;;
8564;SDS011;4320;51.498;6.556;2022-07-17T11:37:14;5.63;;;1.95;;
8564;SDS011;4320;51.498;6.556;2022-07-17T11:39:43;5.35;;;1.80;;
8564;SDS011;4320;51.498;6.556;2022-07-17T11:42:18;3.60;;;1.60;;
8564;SDS011;4320;51.498;6.556;2022-07-17T11:44:45;3.72;;;1.55;;
8564;SDS011;4320;51.498;6.556;2022-07-17T11:47:12;5.45;;;1.85;;
8564;SDS011;4320;51.498;6.556;2022-07-17T11:49:45;3.20;;;1.75;;
8564;SDS011;4320;51.498;6.556;2022-07-17T11:54:45;4.53;;;1.83;;
8564;SDS011;4320;51.498;6.556;2022-07-17T11:57:13;5.63;;;2.05;;
8564;SDS011;4320;51.498;6.556;2022-07-17T11:59:39;5.18;;;2.00;;
8564;SDS011;4320;51.498;6.556;2022-07-17T12:02:15;5.00;;;1.83;;
8564;SDS011;4320;51.498;6.556;2022-07-17T12:04:55;5.13;;;1.92;;
8564;SDS011;4320;51.498;6.556;2022-07-17T12:07:25;6.15;;;1.73;;
8564;SDS011;4320;51.498;6.556;2022-07-17T12:10:10;6.85;;;2.30;;
8564;SDS011;4320;51.498;6.556;2022-07-17T12:12:50;5.22;;;1.90;;
8564;SDS011;4320;51.498;6.556;2022-07-17T12:18:03;2.40;;;1.55;;
8564;SDS011;4320;51.498;6.556;2022-07-17T12:20:41;6.32;;;1.70;;
8564;SDS011;4320;51.498;6.556;2022-07-17T12:23:08;7.25;;;1.77;;
8564;SDS011;4320;51.498;6.556;2022-07-17T12:25:34;3.97;;;1.60;;
8564;SDS011;4320;51.498;6.556;2022-07-17T12:27:59;4.63;;;1.95;;
8564;SDS011;4320;51.498;6.556;2022-07-17T12:30:25;4.00;;;1.60;;
8564;SDS011;4320;51.498;6.556;2022-07-17T12:32:51;5.03;;;1.80;;
8564;SDS011;4320;51.498;6.556;2022-07-17T12:35:16;5.20;;;1.40;;
8564;SDS011;4320;51.498;6.556;2022-07-17T12:37:42;3.45;;;1.50;;
8564;SDS011;4320;51.498;6.556;2022-07-17T12:40:09;2.40;;;1.50;;
8564;SDS011;4320;51.498;6.556;2022-07-17T12:42:35;7.45;;;1.60;;
8564;SDS011;4320;51.498;6.556;2022-07-17T12:45:01;4.95;;;1.70;;
8564;SDS011;4320;51.498;6.556;2022-07-17T12:47:27;3.05;;;1.52;;
8564;SDS011;4320;51.498;6.556;2022-07-17T12:49:53;2.78;;;1.60;;
8564;SDS011;4320;51.498;6.556;2022-07-17T12:52:18;5.45;;;1.60;;
8564;SDS011;4320;51.498;6.556;2022-07-17T12:54:44;2.70;;;1.40;;
8564;SDS011;4320;51.498;6.556;2022-07-17T12:57:10;1.70;;;1.27;;
8564;SDS011;4320;51.498;6.556;2022-07-17T12:59:35;4.43;;;1.45;;
8564;SDS011;4320;51.498;6.556;2022-07-17T13:02:01;3.58;;;1.30;;
8564;SDS011;4320;51.498;6.556;2022-07-17T13:04:27;2.35;;;1.55;;
8564;SDS011;4320;51.498;6.556;2022-07-17T13:06:52;3.13;;;1.30;;
8564;SDS011;4320;51.498;6.556;2022-07-17T13:09:18;7.38;;;1.90;;
8564;SDS011;4320;51.498;6.556;2022-07-17T13:11:44;3.00;;;1.23;;
8564;SDS011;4320;51.498;6.556;2022-07-17T13:14:10;3.20;;;1.52;;
8564;SDS011;4320;51.498;6.556;2022-07-17T13:16:39;2.78;;;1.50;;
8564;SDS011;4320;51.498;6.556;2022-07-17T13:19:05;6.47;;;1.60;;
8564;SDS011;4320;51.498;6.556;2022-07-17T13:21:31;2.28;;;1.40;;
8564;SDS011;4320;51.498;6.556;2022-07-17T13:23:57;2.42;;;1.52;;
8564;SDS011;4320;51.498;6.556;2022-07-17T13:26:22;2.60;;;1.20;;
8564;SDS011;4320;51.498;6.556;2022-07-17T13:28:48;2.17;;;1.40;;
8564;SDS011;4320;51.498;6.556;2022-07-17T13:31:14;3.08;;;1.52;;
8564;SDS011;4320;51.498;6.556;2022-07-17T13:33:40;3.03;;;1.45;;
8564;SDS011;4320;51.498;6.556;2022-07-17T13:36:06;3.63;;;1.50;;
8564;SDS011;4320;51.498;6.556;2022-07-17T13:38:31;2.95;;;1.20;;
8564;SDS011;4320;51.498;6.556;2022-07-17T13:40:57;4.53;;;1.83;;
8564;SDS011;4320;51.498;6.556;2022-07-17T13:43:23;2.55;;;1.30;;
8564;SDS011;4320;51.498;6.556;2022-07-17T13:45:49;3.10;;;1.20;;
8564;SDS011;4320;51.498;6.556;2022-07-17T13:48:14;3.08;;;1.20;;
8564;SDS011;4320;51.498;6.556;2022-07-17T13:50:41;4.00;;;1.50;;
8564;SDS011;4320;51.498;6.556;2022-07-17T13:53:07;3.33;;;1.60;;
8564;SDS011;4320;51.498;6.556;2022-07-17T13:55:33;4.88;;;1.67;;
8564;SDS011;4320;51.498;6.556;2022-07-17T13:57:58;4.60;;;1.70;;
8564;SDS011;4320;51.498;6.556;2022-07-17T14:00:24;2.00;;;1.38;;
8564;SDS011;4320;51.498;6.556;2022-07-17T14:02:50;3.88;;;1.42;;
8564;SDS011;4320;51.498;6.556;2022-07-17T14:05:16;4.03;;;1.20;;
8564;SDS011;4320;51.498;6.556;2022-07-17T14:07:41;5.28;;;1.52;;
8564;SDS011;4320;51.498;6.556;2022-07-17T14:10:08;3.08;;;1.45;;
8564;SDS011;4320;51.498;6.556;2022-07-17T14:12:34;2.90;;;1.38;;
8564;SDS011;4320;51.498;6.556;2022-07-17T14:15:00;1.95;;;1.17;;
8564;SDS011;4320;51.498;6.556;2022-07-17T14:17:26;3.90;;;1.27;;
8564;SDS011;4320;51.498;6.556;2022-07-17T14:19:52;4.25;;;1.88;;
8564;SDS011;4320;51.498;6.556;2022-07-17T14:22:18;3.05;;;1.50;;
8564;SDS011;4320;51.498;6.556;2022-07-17T14:24:43;4.28;;;1.50;;
8564;SDS011;4320;51.498;6.556;2022-07-17T14:27:09;3.28;;;1.65;;
8564;SDS011;4320;51.498;6.556;2022-07-17T14:29:34;3.55;;;1.73;;
8564;SDS011;4320;51.498;6.556;2022-07-17T14:32:00;5.55;;;1.73;;
8564;SDS011;4320;51.498;6.556;2022-07-17T14:34:26;3.28;;;1.50;;
8564;SDS011;4320;51.498;6.556;2022-07-17T14:36:52;3.72;;;1.50;;
8564;SDS011;4320;51.498;6.556;2022-07-17T14:39:18;1.88;;;1.38;;
8564;SDS011;4320;51.498;6.556;2022-07-17T14:41:44;4.35;;;1.63;;
8564;SDS011;4320;51.498;6.556;2022-07-17T14:44:10;2.58;;;1.50;;
8564;SDS011;4320;51.498;6.556;2022-07-17T14:46:36;3.53;;;2.10;;
8564;SDS011;4320;51.498;6.556;2022-07-17T14:49:02;4.30;;;1.90;;
8564;SDS011;4320;51.498;6.556;2022-07-17T14:51:27;2.83;;;1.55;;
8564;SDS011;4320;51.498;6.556;2022-07-17T14:53:53;7.03;;;3.90;;
8564;SDS011;4320;51.498;6.556;2022-07-17T14:56:19;12.27;;;3.95;;
8564;SDS011;4320;51.498;6.556;2022-07-17T14:58:44;5.35;;;1.77;;
8564;SDS011;4320;51.498;6.556;2022-07-17T15:01:10;4.78;;;2.10;;
8564;SDS011;4320;51.498;6.556;2022-07-17T15:03:35;4.45;;;1.98;;
8564;SDS011;4320;51.498;6.556;2022-07-17T15:06:01;7.25;;;3.05;;
8564;SDS011;4320;51.498;6.556;2022-07-17T15:08:27;3.75;;;1.67;;
8564;SDS011;4320;51.498;6.556;2022-07-17T15:10:53;2.95;;;1.67;;
8564;SDS011;4320;51.498;6.556;2022-07-17T15:13:19;2.50;;;1.48;;
8564;SDS011;4320;51.498;6.556;2022-07-17T15:15:44;2.38;;;1.70;;
8564;SDS011;4320;51.498;6.556;2022-07-17T15:18:10;5.00;;;1.58;;
8564;SDS011;4320;51.498;6.556;2022-07-17T15:20:36;4.57;;;1.58;;
8564;SDS011;4320;51.498;6.556;2022-07-17T15:23:01;1.33;;;1.10;;
8564;SDS011;4320;51.498;6.556;2022-07-17T15:25:27;3.17;;;1.40;;
8564;SDS011;4320;51.498;6.556;2022-07-17T15:27:53;4.47;;;1.38;;
8564;SDS011;4320;51.498;6.556;2022-07-17T15:30:18;1.98;;;1.25;;
8564;SDS011;4320;51.498;6.556;2022-07-17T15:32:44;3.08;;;1.40;;
8564;SDS011;4320;51.498;6.556;2022-07-17T15:35:10;3.25;;;1.50;;